Time;durP1;ratioP1;P1;durP2;ratioP2;P2;SDS_P1;SDS_P2;PMS_P1;PMS_P2;Temp;Humidity;BMP_temperature;BMP_pressure;BME280_temperature;BME280_humidity;BME280_pressure;Samples;Min_cycle;Max_cycle;Signal;HPM_P1;HPM_P2
2021/05/26 00:01:44;;;;;;;18.27;6.70;;;;;;;;;;4982745;28;21981;-60
2021/05/26 00:04:12;;;;;;;16.58;6.85;;;;;;;;;;4966705;28;20055;-60
2021/05/26 00:06:38;;;;;;;12.85;6.03;;;;;;;;;;4962033;28;20026;-59
2021/05/26 00:09:08;;;;;;;14.57;6.20;;;;;;;;;;4968335;28;20039;-60
2021/05/26 00:11:36;;;;;;;12.23;5.97;;;;;;;;;;4965531;28;20441;-61
2021/05/26 00:14:03;;;;;;;14.55;5.93;;;;;;;;;;4969179;28;20080;-60
2021/05/26 00:16:30;;;;;;;14.18;5.68;;;;;;;;;;4966852;28;20089;-60
2021/05/26 00:18:56;;;;;;;16.70;5.72;;;;;;;;;;4965568;28;20481;-60
2021/05/26 00:21:23;;;;;;;16.90;6.70;;;;;;;;;;4962703;28;20049;-59
2021/05/26 00:23:49;;;;;;;13.13;6.38;;;;;;;;;;4965916;28;20144;-59
2021/05/26 00:26:17;;;;;;;9.65;5.35;;;;;;;;;;4966431;28;20553;-60
2021/05/26 00:28:46;;;;;;;12.82;6.70;;;;;;;;;;4966533;28;20102;-60
2021/05/26 00:31:12;;;;;;;11.68;6.55;;;;;;;;;;4970869;28;20019;-59
2021/05/26 00:33:38;;;;;;;12.63;6.45;;;;;;;;;;4966844;28;20394;-60
2021/05/26 00:36:05;;;;;;;16.45;6.72;;;;;;;;;;4966803;28;20145;-59
2021/05/26 00:38:31;;;;;;;20.10;6.95;;;;;;;;;;4967199;28;20030;-60
2021/05/26 00:40:59;;;;;;;16.58;7.47;;;;;;;;;;4965187;28;20430;-60
2021/05/26 00:43:27;;;;;;;13.73;6.15;;;;;;;;;;4964732;28;20998;-60
2021/05/26 00:45:55;;;;;;;22.55;7.20;;;;;;;;;;4972944;28;20105;-60
2021/05/26 00:48:20;;;;;;;11.73;5.93;;;;;;;;;;4982571;28;20467;-60
2021/05/26 00:50:48;;;;;;;13.85;6.38;;;;;;;;;;4966399;28;20043;-59
2021/05/26 00:53:17;;;;;;;11.07;5.95;;;;;;;;;;4967909;28;20034;-62
2021/05/26 00:55:45;;;;;;;21.60;6.00;;;;;;;;;;4970156;28;20030;-60
2021/05/26 00:58:11;;;;;;;18.98;6.85;;;;;;;;;;4970092;28;20041;-60
2021/05/26 01:00:38;;;;;;;15.70;6.30;;;;;;;;;;4985999;28;20140;-60
2021/05/26 01:03:07;;;;;;;18.48;7.13;;;;;;;;;;4970288;28;20093;-61
2021/05/26 01:05:36;;;;;;;21.98;6.40;;;;;;;;;;4972298;28;20393;-60
2021/05/26 01:08:04;;;;;;;14.23;6.13;;;;;;;;;;4970784;28;20033;-60
2021/05/26 01:10:30;;;;;;;14.55;6.03;;;;;;;;;;4971354;28;20037;-59
2021/05/26 01:12:57;;;;;;;13.13;6.07;;;;;;;;;;4971007;28;20025;-60
2021/05/26 01:15:27;;;;;;;16.48;6.55;;;;;;;;;;4969530;28;20088;-60
2021/05/26 01:17:53;;;;;;;19.98;6.68;;;;;;;;;;4982786;28;20037;-60
2021/05/26 01:20:26;;;;;;;14.68;6.32;;;;;;;;;;4960233;28;20026;-60
2021/05/26 01:22:52;;;;;;;17.50;6.13;;;;;;;;;;4984559;28;20124;-59
2021/05/26 01:25:18;;;;;;;18.67;6.55;;;;;;;;;;4983262;28;20963;-61
2021/05/26 01:27:46;;;;;;;13.43;5.90;;;;;;;;;;4970657;28;20038;-61
2021/05/26 01:30:15;;;;;;;12.88;5.15;;;;;;;;;;4967872;28;20101;-61
2021/05/26 01:32:44;;;;;;;16.77;6.30;;;;;;;;;;4984415;28;20240;-60
2021/05/26 01:35:11;;;;;;;14.98;6.35;;;;;;;;;;4969304;28;20125;-60
2021/05/26 01:37:38;;;;;;;12.10;5.53;;;;;;;;;;4983121;28;20049;-60
2021/05/26 01:40:05;;;;;;;18.10;6.55;;;;;;;;;;4970883;28;21081;-61
2021/05/26 01:42:36;;;;;;;12.60;6.60;;;;;;;;;;4967745;28;20049;-62
2021/05/26 01:45:02;;;;;;;14.23;6.35;;;;;;;;;;4970046;28;20683;-61
2021/05/26 01:47:30;;;;;;;16.70;6.72;;;;;;;;;;4984953;28;20178;-61
2021/05/26 01:49:56;;;;;;;18.15;7.25;;;;;;;;;;4968454;28;20037;-60
2021/05/26 01:52:24;;;;;;;23.30;7.57;;;;;;;;;;4966748;28;20041;-60
2021/05/26 01:54:50;;;;;;;22.02;7.88;;;;;;;;;;4954213;28;20026;-61
2021/05/26 01:57:18;;;;;;;25.95;8.95;;;;;;;;;;4969894;28;20050;-61
2021/05/26 01:59:44;;;;;;;28.25;8.63;;;;;;;;;;4969765;28;20431;-59
2021/05/26 02:02:11;;;;;;;35.05;8.40;;;;;;;;;;4963921;28;20038;-60
2021/05/26 02:04:40;;;;;;;22.70;7.82;;;;;;;;;;4970860;28;20038;-60
2021/05/26 02:07:07;;;;;;;17.40;7.00;;;;;;;;;;4968450;28;20038;-61
2021/05/26 02:09:34;;;;;;;29.73;8.75;;;;;;;;;;4968692;28;20034;-60
2021/05/26 02:14:44;;;;;;;21.20;7.03;;;;;;;;;;4969114;28;22067;-61
2021/05/26 02:17:13;;;;;;;28.95;8.88;;;;;;;;;;4967848;28;20646;-60
2021/05/26 02:19:38;;;;;;;20.08;8.23;;;;;;;;;;4970287;28;20066;-60
2021/05/26 02:22:06;;;;;;;18.52;6.38;;;;;;;;;;4967332;28;20124;-64
2021/05/26 02:24:31;;;;;;;25.45;7.18;;;;;;;;;;4969030;28;20031;-60
2021/05/26 02:26:57;;;;;;;18.08;6.13;;;;;;;;;;4980520;28;20489;-60
2021/05/26 02:29:22;;;;;;;14.73;6.28;;;;;;;;;;4967981;28;20086;-59
2021/05/26 02:31:48;;;;;;;16.17;6.28;;;;;;;;;;4952390;28;20468;-61
2021/05/26 02:34:16;;;;;;;13.73;5.65;;;;;;;;;;4983433;28;20027;-61
2021/05/26 02:36:44;;;;;;;17.33;5.45;;;;;;;;;;4969560;28;22170;-61
2021/05/26 02:39:12;;;;;;;12.63;6.10;;;;;;;;;;4969533;28;20043;-60
2021/05/26 02:41:38;;;;;;;16.02;6.82;;;;;;;;;;4969080;28;20035;-61
2021/05/26 02:44:04;;;;;;;14.00;6.38;;;;;;;;;;4975068;28;20426;-60
2021/05/26 02:46:30;;;;;;;15.32;6.72;;;;;;;;;;4967887;28;20117;-61
2021/05/26 02:48:56;;;;;;;18.80;6.22;;;;;;;;;;4968771;28;20034;-60
2021/05/26 02:51:22;;;;;;;20.20;5.43;;;;;;;;;;4983536;28;20022;-60
2021/05/26 02:53:49;;;;;;;18.95;7.20;;;;;;;;;;4984879;28;20157;-60
2021/05/26 02:56:16;;;;;;;19.42;6.78;;;;;;;;;;4969262;28;20137;-59
2021/05/26 02:58:42;;;;;;;16.00;6.20;;;;;;;;;;4967013;28;20033;-59
2021/05/26 03:01:07;;;;;;;14.88;6.28;;;;;;;;;;4969200;28;20046;-60
2021/05/26 03:03:33;;;;;;;21.35;7.07;;;;;;;;;;4968159;28;20041;-61
2021/05/26 03:06:00;;;;;;;21.23;6.97;;;;;;;;;;4968519;28;20034;-59
2021/05/26 03:08:26;;;;;;;20.30;7.45;;;;;;;;;;4969156;28;20037;-60
2021/05/26 03:10:58;;;;;;;23.52;7.60;;;;;;;;;;4966756;28;20615;-59
2021/05/26 03:13:24;;;;;;;24.88;8.32;;;;;;;;;;4966821;28;20098;-60
2021/05/26 03:15:54;;;;;;;20.67;7.15;;;;;;;;;;4969561;28;20173;-60
2021/05/26 03:18:23;;;;;;;26.10;7.95;;;;;;;;;;4983154;28;20068;-60
2021/05/26 03:20:50;;;;;;;18.02;7.72;;;;;;;;;;4967560;28;21946;-59
2021/05/26 03:23:16;;;;;;;22.38;7.88;;;;;;;;;;4968082;28;20892;-59
2021/05/26 03:25:48;;;;;;;21.20;7.72;;;;;;;;;;4970490;28;20039;-59
2021/05/26 03:28:15;;;;;;;30.15;8.00;;;;;;;;;;4968028;28;20104;-59
2021/05/26 03:30:40;;;;;;;18.98;7.40;;;;;;;;;;4983206;28;20022;-60
2021/05/26 03:33:08;;;;;;;16.77;7.03;;;;;;;;;;4968762;28;20037;-60
2021/05/26 03:35:33;;;;;;;23.52;7.82;;;;;;;;;;5172479;23;20159;-60
2021/05/26 03:38:01;;;;;;;15.70;7.47;;;;;;;;;;4922738;28;20096;-60
2021/05/26 03:40:29;;;;;;;19.95;8.40;;;;;;;;;;4908546;29;20197;-61
2021/05/26 03:42:55;;;;;;;23.60;8.70;;;;;;;;;;4908322;29;20528;-60
2021/05/26 03:45:20;;;;;;;21.35;8.13;;;;;;;;;;4900075;29;20052;-60
2021/05/26 03:47:51;;;;;;;18.35;7.90;;;;;;;;;;4906918;29;20035;-59
2021/05/26 03:50:19;;;;;;;25.98;8.65;;;;;;;;;;4921132;28;20039;-59
2021/05/26 03:52:45;;;;;;;26.50;7.60;;;;;;;;;;4908285;29;20040;-59
2021/05/26 03:55:12;;;;;;;21.98;8.23;;;;;;;;;;4908168;29;20119;-59
2021/05/26 03:57:38;;;;;;;24.80;9.73;;;;;;;;;;4906951;29;20035;-59
2021/05/26 04:00:05;;;;;;;24.88;9.38;;;;;;;;;;4908155;29;20075;-61
2021/05/26 04:02:30;;;;;;;24.10;8.43;;;;;;;;;;4921522;28;20044;-60
2021/05/26 04:04:56;;;;;;;24.73;8.52;;;;;;;;;;4907176;29;20032;-60
2021/05/26 04:07:26;;;;;;;23.88;8.35;;;;;;;;;;4907795;29;20126;-60
2021/05/26 04:09:55;;;;;;;16.95;6.90;;;;;;;;;;4908080;29;20372;-61
2021/05/26 04:12:21;;;;;;;16.45;6.95;;;;;;;;;;4907634;29;20608;-60
2021/05/26 04:14:46;;;;;;;16.75;7.50;;;;;;;;;;4907644;29;20028;-61
2021/05/26 04:17:12;;;;;;;22.73;8.63;;;;;;;;;;4906313;29;20123;-59
2021/05/26 04:19:38;;;;;;;16.67;6.85;;;;;;;;;;4907540;29;20066;-61
2021/05/26 04:22:03;;;;;;;17.23;6.95;;;;;;;;;;4920073;28;20036;-60
2021/05/26 04:24:32;;;;;;;16.92;6.63;;;;;;;;;;4914253;29;20032;-61
2021/05/26 04:26:57;;;;;;;14.90;6.85;;;;;;;;;;4901566;29;20047;-62
2021/05/26 04:29:24;;;;;;;16.23;6.45;;;;;;;;;;4905869;29;20039;-64
2021/05/26 04:31:50;;;;;;;14.43;6.32;;;;;;;;;;4906986;29;20481;-61
2021/05/26 04:34:16;;;;;;;15.38;5.78;;;;;;;;;;4922030;28;20186;-60
2021/05/26 04:36:45;;;;;;;13.73;6.68;;;;;;;;;;4922044;28;20582;-60
2021/05/26 04:39:10;;;;;;;11.27;5.47;;;;;;;;;;4922016;28;20032;-61
2021/05/26 04:41:36;;;;;;;14.70;5.43;;;;;;;;;;4912872;29;20641;-60
2021/05/26 04:44:01;;;;;;;16.15;5.93;;;;;;;;;;4890862;29;20051;-60
2021/05/26 04:46:28;;;;;;;10.68;5.43;;;;;;;;;;4906203;29;20036;-60
2021/05/26 04:48:53;;;;;;;11.75;6.07;;;;;;;;;;4892145;29;20396;-60
2021/05/26 04:51:19;;;;;;;8.93;4.90;;;;;;;;;;4920964;28;20033;-60
2021/05/26 04:53:45;;;;;;;8.98;5.03;;;;;;;;;;4906069;29;20133;-61
2021/05/26 04:56:13;;;;;;;11.23;4.65;;;;;;;;;;4908430;29;20043;-60
2021/05/26 04:58:40;;;;;;;11.20;5.00;;;;;;;;;;4905971;29;20522;-60
2021/05/26 05:01:06;;;;;;;8.40;4.75;;;;;;;;;;4922462;28;20098;-60
2021/05/26 05:03:32;;;;;;;11.68;4.70;;;;;;;;;;4920968;28;20048;-62
2021/05/26 05:05:57;;;;;;;9.77;4.65;;;;;;;;;;4905984;29;20047;-61
2021/05/26 05:08:23;;;;;;;7.07;4.55;;;;;;;;;;4890247;29;20036;-60
2021/05/26 05:10:48;;;;;;;9.18;4.93;;;;;;;;;;4906362;29;20082;-61
2021/05/26 05:13:14;;;;;;;13.00;4.57;;;;;;;;;;4905101;29;20038;-61
2021/05/26 05:15:42;;;;;;;10.07;5.10;;;;;;;;;;4903918;29;20039;-60
2021/05/26 05:18:08;;;;;;;11.48;5.38;;;;;;;;;;4906122;29;20039;-60
2021/05/26 05:20:34;;;;;;;11.38;5.30;;;;;;;;;;4907207;29;20131;-60
2021/05/26 05:23:00;;;;;;;10.70;4.63;;;;;;;;;;4904070;29;20494;-60
2021/05/26 05:25:28;;;;;;;9.95;5.32;;;;;;;;;;4906889;29;20108;-60
2021/05/26 05:27:54;;;;;;;6.90;5.20;;;;;;;;;;4904871;29;20039;-59
2021/05/26 05:30:22;;;;;;;10.27;4.70;;;;;;;;;;4912010;29;20039;-60
2021/05/26 05:32:47;;;;;;;5.88;4.65;;;;;;;;;;4905491;29;20083;-60
2021/05/26 05:35:14;;;;;;;14.93;5.53;;;;;;;;;;4911454;28;20048;-60
2021/05/26 05:37:41;;;;;;;11.27;5.55;;;;;;;;;;4906660;29;20498;-59
2021/05/26 05:40:09;;;;;;;9.75;5.50;;;;;;;;;;4907217;29;20039;-60
2021/05/26 05:42:35;;;;;;;11.43;5.00;;;;;;;;;;4906145;29;20742;-61
2021/05/26 05:45:03;;;;;;;19.10;5.40;;;;;;;;;;4910368;29;20087;-60
2021/05/26 05:47:29;;;;;;;10.65;5.28;;;;;;;;;;4906139;29;20063;-61
2021/05/26 05:49:54;;;;;;;12.43;5.20;;;;;;;;;;4909777;29;20137;-61
2021/05/26 05:52:22;;;;;;;10.75;5.35;;;;;;;;;;4907932;29;20123;-61
2021/05/26 05:54:49;;;;;;;8.65;5.38;;;;;;;;;;4910632;29;20031;-60
2021/05/26 05:57:15;;;;;;;9.63;4.60;;;;;;;;;;4893889;29;20122;-60
2021/05/26 05:59:43;;;;;;;14.60;5.63;;;;;;;;;;4909119;29;20043;-61
2021/05/26 06:02:12;;;;;;;10.30;4.97;;;;;;;;;;4908797;29;20055;-61
2021/05/26 06:04:39;;;;;;;9.52;4.55;;;;;;;;;;4909134;29;20028;-61
2021/05/26 06:07:05;;;;;;;9.02;5.05;;;;;;;;;;4907637;29;20482;-61
2021/05/26 06:09:30;;;;;;;11.95;6.13;;;;;;;;;;4923361;28;20063;-61
2021/05/26 06:11:56;;;;;;;15.27;6.43;;;;;;;;;;4898729;29;20028;-61
2021/05/26 06:14:22;;;;;;;8.90;5.30;;;;;;;;;;4909124;29;20096;-61
2021/05/26 06:16:48;;;;;;;10.43;4.80;;;;;;;;;;4907868;29;20032;-61
2021/05/26 06:19:13;;;;;;;9.90;4.45;;;;;;;;;;4891334;29;20055;-61
2021/05/26 06:21:39;;;;;;;12.75;4.47;;;;;;;;;;4894869;29;20094;-62
2021/05/26 06:24:05;;;;;;;12.25;4.95;;;;;;;;;;4909611;29;20035;-61
2021/05/26 06:26:31;;;;;;;10.68;5.45;;;;;;;;;;4908963;29;20074;-61
2021/05/26 06:29:03;;;;;;;9.75;5.68;;;;;;;;;;4921703;28;20043;-61
2021/05/26 06:31:34;;;;;;;12.05;5.10;;;;;;;;;;4907111;29;20036;-61
2021/05/26 06:34:03;;;;;;;11.10;5.65;;;;;;;;;;4910036;29;20134;-61
2021/05/26 06:36:35;;;;;;;11.35;5.70;;;;;;;;;;4916186;28;20277;-61
2021/05/26 06:39:01;;;;;;;13.35;6.18;;;;;;;;;;4887627;29;20977;-61
2021/05/26 06:41:27;;;;;;;13.52;5.80;;;;;;;;;;4904593;29;20043;-59
2021/05/26 06:44:00;;;;;;;9.68;4.78;;;;;;;;;;4900481;29;20142;-60
2021/05/26 06:46:28;;;;;;;9.05;4.32;;;;;;;;;;4922218;28;20091;-61
2021/05/26 06:48:56;;;;;;;11.30;4.20;;;;;;;;;;4905335;29;20024;-60
2021/05/26 06:51:22;;;;;;;6.38;4.68;;;;;;;;;;4903691;29;20187;-60
2021/05/26 06:53:48;;;;;;;6.28;3.80;;;;;;;;;;4887870;29;20040;-59
2021/05/26 06:56:13;;;;;;;8.75;3.60;;;;;;;;;;4901229;29;20042;-61
2021/05/26 06:58:45;;;;;;;5.78;2.90;;;;;;;;;;4915224;28;20047;-61
2021/05/26 07:01:11;;;;;;;6.97;2.75;;;;;;;;;;4906863;29;20053;-62
2021/05/26 07:03:36;;;;;;;8.43;3.38;;;;;;;;;;4907179;29;22091;-61
2021/05/26 07:06:08;;;;;;;2.58;2.00;;;;;;;;;;4906830;29;20039;-63
2021/05/26 07:08:33;;;;;;;2.65;1.90;;;;;;;;;;4893594;29;22102;-61
2021/05/26 07:10:59;;;;;;;4.30;1.55;;;;;;;;;;4906035;29;20031;-59
2021/05/26 07:13:27;;;;;;;1.65;1.13;;;;;;;;;;4907930;29;20019;-61
2021/05/26 07:15:54;;;;;;;2.30;1.70;;;;;;;;;;4904515;29;20043;-63
2021/05/26 07:18:19;;;;;;;2.92;1.33;;;;;;;;;;4904442;29;20036;-65
2021/05/26 07:20:47;;;;;;;2.97;1.38;;;;;;;;;;4906739;29;21110;-62
2021/05/26 07:23:13;;;;;;;1.35;1.20;;;;;;;;;;4906307;29;20774;-62
2021/05/26 07:25:44;;;;;;;4.13;1.10;;;;;;;;;;4907230;29;20035;-61
2021/05/26 07:28:09;;;;;;;3.55;0.60;;;;;;;;;;4907053;29;20040;-61
2021/05/26 07:30:43;;;;;;;4.78;1.00;;;;;;;;;;4906223;29;20028;-62
2021/05/26 07:33:12;;;;;;;1.83;0.85;;;;;;;;;;4908908;29;20654;-60
2021/05/26 07:35:37;;;;;;;3.00;0.90;;;;;;;;;;4905309;29;20142;-60
2021/05/26 07:38:05;;;;;;;1.48;0.90;;;;;;;;;;4907290;29;20036;-63
2021/05/26 07:40:35;;;;;;;1.58;1.00;;;;;;;;;;4907018;29;20411;-61
2021/05/26 07:43:01;;;;;;;1.85;0.52;;;;;;;;;;4887873;29;20062;-63
2021/05/26 07:45:26;;;;;;;3.47;0.77;;;;;;;;;;4906955;29;20476;-63
2021/05/26 07:47:52;;;;;;;2.40;0.98;;;;;;;;;;4907331;28;20047;-63
2021/05/26 07:50:18;;;;;;;3.28;0.95;;;;;;;;;;4908665;29;20491;-61
2021/05/26 07:52:44;;;;;;;1.48;0.82;;;;;;;;;;4905854;29;20608;-62
2021/05/26 07:55:09;;;;;;;2.00;1.00;;;;;;;;;;4905318;29;20036;-61
2021/05/26 07:57:38;;;;;;;2.17;0.82;;;;;;;;;;4906836;29;20118;-62
2021/05/26 08:00:05;;;;;;;4.40;1.33;;;;;;;;;;4907001;29;20082;-60
2021/05/26 08:02:30;;;;;;;1.98;1.20;;;;;;;;;;4906315;29;22291;-60
2021/05/26 08:04:55;;;;;;;3.05;1.15;;;;;;;;;;4904940;29;20046;-61
2021/05/26 08:07:22;;;;;;;3.67;1.42;;;;;;;;;;4907865;29;20043;-61
2021/05/26 08:09:48;;;;;;;3.70;1.13;;;;;;;;;;4908943;29;20906;-63
2021/05/26 08:12:16;;;;;;;1.70;0.90;;;;;;;;;;4888012;29;20028;-61
2021/05/26 08:14:44;;;;;;;2.00;0.77;;;;;;;;;;4904140;29;21076;-60
2021/05/26 08:17:11;;;;;;;3.17;0.60;;;;;;;;;;4906308;29;20035;-60
2021/05/26 08:19:38;;;;;;;0.80;0.77;;;;;;;;;;4907099;29;20063;-64
2021/05/26 08:22:08;;;;;;;2.15;0.90;;;;;;;;;;4921077;28;20154;-62
2021/05/26 08:24:37;;;;;;;2.15;0.90;;;;;;;;;;4891371;29;20038;-61
2021/05/26 08:27:24;;;;;;;1.05;0.50;;;;;;;;;;4892582;29;20334;-62
2021/05/26 08:29:54;;;;;;;1.65;0.80;;;;;;;;;;4905229;29;20154;-60
2021/05/26 08:32:19;;;;;;;2.95;1.05;;;;;;;;;;4905914;29;20479;-59
2021/05/26 08:34:48;;;;;;;2.03;0.98;;;;;;;;;;4905213;29;20042;-61
2021/05/26 08:37:17;;;;;;;4.22;1.00;;;;;;;;;;4887910;29;20066;-61
2021/05/26 08:39:49;;;;;;;1.42;0.80;;;;;;;;;;4906724;29;20040;-59
2021/05/26 08:42:16;;;;;;;2.00;0.80;;;;;;;;;;4904857;29;20040;-62
2021/05/26 08:44:42;;;;;;;0.43;0.35;;;;;;;;;;4895880;29;20035;-62
2021/05/26 08:47:17;;;;;;;1.63;0.40;;;;;;;;;;4904597;29;20688;-61
2021/05/26 08:49:47;;;;;;;0.75;0.32;;;;;;;;;;4905435;29;20040;-61
2021/05/26 08:52:16;;;;;;;2.17;0.68;;;;;;;;;;4887151;29;20035;-59
2021/05/26 08:54:45;;;;;;;2.08;0.40;;;;;;;;;;4905800;29;20043;-59
2021/05/26 08:57:11;;;;;;;1.80;0.30;;;;;;;;;;4904830;28;20035;-60
2021/05/26 08:59:36;;;;;;;0.82;0.30;;;;;;;;;;4891664;29;20039;-60
2021/05/26 09:02:03;;;;;;;2.85;0.63;;;;;;;;;;4891394;29;20071;-59
2021/05/26 09:04:36;;;;;;;0.32;0.28;;;;;;;;;;4891517;29;20035;-62
2021/05/26 09:07:07;;;;;;;0.40;0.30;;;;;;;;;;4907982;29;20035;-60
2021/05/26 09:09:35;;;;;;;0.65;0.20;;;;;;;;;;4921684;28;21904;-59
2021/05/26 09:12:01;;;;;;;1.27;0.10;;;;;;;;;;4903723;29;20043;-61
2021/05/26 09:14:38;;;;;;;0.17;0.17;;;;;;;;;;4906723;29;20047;-60
2021/05/26 09:17:10;;;;;;;0.22;0.13;;;;;;;;;;4907064;29;20042;-60
2021/05/26 09:19:42;;;;;;;0.22;0.20;;;;;;;;;;4906278;29;20719;-58
2021/05/26 09:22:11;;;;;;;1.63;0.28;;;;;;;;;;4909945;29;20948;-61
2021/05/26 09:24:37;;;;;;;0.17;0.17;;;;;;;;;;4910382;29;20043;-63
2021/05/26 09:27:06;;;;;;;0.05;0.00;;;;;;;;;;4909922;29;20087;-60
2021/05/26 09:29:33;;;;;;;0.60;0.20;;;;;;;;;;4908069;29;20036;-62
2021/05/26 09:32:15;;;;;;;1.35;0.10;;;;;;;;;;4922821;28;20155;-61
2021/05/26 09:34:46;;;;;;;0.25;0.10;;;;;;;;;;4909252;29;20039;-60
2021/05/26 09:37:19;;;;;;;0.20;0.20;;;;;;;;;;4910059;29;20096;-60
2021/05/26 09:39:46;;;;;;;0.57;0.20;;;;;;;;;;4908317;29;20099;-61
2021/05/26 09:42:24;;;;;;;0.68;0.40;;;;;;;;;;4906580;29;20620;-62
2021/05/26 09:45:10;;;;;;;0.10;0.10;;;;;;;;;;4910171;29;20034;-61
2021/05/26 09:47:37;;;;;;;1.55;0.25;;;;;;;;;;4903566;29;20079;-62
2021/05/26 09:50:23;;;;;;;1.60;0.30;;;;;;;;;;4908382;29;20040;-59
2021/05/26 09:53:01;;;;;;;2.92;0.10;;;;;;;;;;4901505;29;20174;-58
2021/05/26 09:55:33;;;;;;;2.10;0.20;;;;;;;;;;4894141;29;20036;-62
2021/05/26 09:57:59;;;;;;;0.73;0.50;;;;;;;;;;4906896;29;20039;-58
2021/05/26 10:00:28;;;;;;;0.10;0.10;;;;;;;;;;4893699;29;22207;-62
2021/05/26 10:02:56;;;;;;;1.65;0.13;;;;;;;;;;4908965;29;20480;-59
2021/05/26 10:05:25;;;;;;;1.33;0.25;;;;;;;;;;4896999;29;20964;-60
2021/05/26 10:07:51;;;;;;;1.80;0.20;;;;;;;;;;4908961;29;20035;-61
2021/05/26 10:10:17;;;;;;;3.33;0.60;;;;;;;;;;4909138;29;20142;-61
2021/05/26 10:12:43;;;;;;;0.82;0.30;;;;;;;;;;4896831;29;20024;-60
2021/05/26 10:15:11;;;;;;;3.17;0.63;;;;;;;;;;4893425;29;20034;-60
2021/05/26 10:17:39;;;;;;;2.15;0.40;;;;;;;;;;4921841;28;20039;-60
2021/05/26 10:20:06;;;;;;;1.48;0.35;;;;;;;;;;4906726;29;20130;-61
2021/05/26 10:22:33;;;;;;;0.10;0.10;;;;;;;;;;4907885;29;20032;-61
2021/05/26 10:24:58;;;;;;;0.95;0.25;;;;;;;;;;4894665;29;20028;-59
2021/05/26 10:27:30;;;;;;;0.22;0.20;;;;;;;;;;4905909;29;20091;-62
2021/05/26 10:29:57;;;;;;;1.00;0.40;;;;;;;;;;4902460;29;20031;-59
2021/05/26 10:32:29;;;;;;;1.10;0.45;;;;;;;;;;4918353;28;20032;-59
2021/05/26 10:34:55;;;;;;;0.77;0.63;;;;;;;;;;4904097;29;20809;-61
2021/05/26 10:37:25;;;;;;;4.18;0.43;;;;;;;;;;4902336;29;20088;-62
2021/05/26 10:39:51;;;;;;;0.82;0.30;;;;;;;;;;4921514;28;20555;-59
2021/05/26 10:42:27;;;;;;;4.28;0.65;;;;;;;;;;4905045;29;20032;-61
2021/05/26 10:44:57;;;;;;;0.30;0.22;;;;;;;;;;4905480;29;20051;-60
2021/05/26 10:47:35;;;;;;;1.02;0.43;;;;;;;;;;4902103;29;20032;-60
2021/05/26 10:50:02;;;;;;;0.30;0.17;;;;;;;;;;4906930;29;20655;-60
2021/05/26 10:52:27;;;;;;;2.70;0.30;;;;;;;;;;4904980;29;20035;-60
2021/05/26 10:54:53;;;;;;;0.82;0.40;;;;;;;;;;4905257;29;20053;-60
2021/05/26 10:57:24;;;;;;;2.47;0.30;;;;;;;;;;4920939;28;20086;-59
2021/05/26 11:00:11;;;;;;;1.55;0.40;;;;;;;;;;4904928;29;20662;-60
2021/05/26 11:02:39;;;;;;;8.07;0.65;;;;;;;;;;4886805;29;20042;-61
2021/05/26 11:05:26;;;;;;;2.85;0.40;;;;;;;;;;4891248;29;20032;-59
2021/05/26 11:08:11;;;;;;;0.40;0.40;;;;;;;;;;4902151;29;20539;-60
2021/05/26 11:10:37;;;;;;;0.60;0.55;;;;;;;;;;4907753;29;20039;-60
2021/05/26 11:13:05;;;;;;;1.45;0.40;;;;;;;;;;4905050;29;20042;-61
2021/05/26 11:15:41;;;;;;;1.38;0.65;;;;;;;;;;4892471;29;20392;-62
2021/05/26 11:18:17;;;;;;;2.50;0.70;;;;;;;;;;4888395;29;20308;-61
2021/05/26 11:20:45;;;;;;;3.63;0.60;;;;;;;;;;4921962;28;20024;-60
2021/05/26 11:23:17;;;;;;;6.57;0.63;;;;;;;;;;4905702;29;20048;-61
2021/05/26 11:25:56;;;;;;;1.90;0.50;;;;;;;;;;4907077;29;20035;-60
2021/05/26 11:28:31;;;;;;;3.08;0.82;;;;;;;;;;4888298;29;20629;-60
2021/05/26 11:30:58;;;;;;;2.33;0.70;;;;;;;;;;4905168;29;20039;-59
2021/05/26 11:33:25;;;;;;;3.67;0.65;;;;;;;;;;4906653;29;20039;-62
2021/05/26 11:35:50;;;;;;;2.97;0.45;;;;;;;;;;4918077;28;20194;-59
2021/05/26 11:38:23;;;;;;;2.22;0.47;;;;;;;;;;4906224;29;20130;-59
2021/05/26 11:40:49;;;;;;;1.13;0.45;;;;;;;;;;4906350;29;20142;-62
2021/05/26 11:43:17;;;;;;;3.20;0.50;;;;;;;;;;4907492;29;20074;-58
2021/05/26 11:45:43;;;;;;;3.13;0.80;;;;;;;;;;4907323;29;20035;-61
2021/05/26 11:48:11;;;;;;;4.00;0.50;;;;;;;;;;4889937;29;20055;-60
2021/05/26 11:50:45;;;;;;;2.28;0.80;;;;;;;;;;4903662;29;20051;-63
2021/05/26 11:53:16;;;;;;;2.08;0.80;;;;;;;;;;4881883;29;20047;-60
2021/05/26 11:55:43;;;;;;;1.65;0.45;;;;;;;;;;4906925;29;20031;-64
2021/05/26 11:58:09;;;;;;;2.53;0.45;;;;;;;;;;4918289;28;20040;-60
2021/05/26 12:00:36;;;;;;;1.67;0.60;;;;;;;;;;4904708;29;20578;-61
2021/05/26 12:03:07;;;;;;;1.02;0.50;;;;;;;;;;4906495;29;20498;-62
2021/05/26 12:05:39;;;;;;;1.83;0.73;;;;;;;;;;4892314;29;20099;-62
2021/05/26 12:08:17;;;;;;;2.42;0.73;;;;;;;;;;4907495;29;20036;-61
2021/05/26 12:10:45;;;;;;;1.17;0.60;;;;;;;;;;4905629;29;20032;-62
2021/05/26 12:13:11;;;;;;;0.82;0.70;;;;;;;;;;4906456;29;20027;-58
2021/05/26 12:15:41;;;;;;;2.47;0.68;;;;;;;;;;4907505;29;20047;-59
2021/05/26 12:18:07;;;;;;;4.25;0.68;;;;;;;;;;4904403;29;20111;-62
2021/05/26 12:20:34;;;;;;;1.55;0.95;;;;;;;;;;4891010;29;20047;-61
2021/05/26 12:23:00;;;;;;;1.20;0.82;;;;;;;;;;4905842;29;20042;-61
2021/05/26 12:25:36;;;;;;;2.55;0.70;;;;;;;;;;4907492;29;20090;-60
2021/05/26 12:28:15;;;;;;;0.93;0.77;;;;;;;;;;4903793;29;20047;-59
2021/05/26 12:30:41;;;;;;;2.70;1.13;;;;;;;;;;4907414;29;20150;-60
2021/05/26 12:33:15;;;;;;;1.25;0.88;;;;;;;;;;4906406;29;20050;-61
2021/05/26 12:35:42;;;;;;;2.13;1.10;;;;;;;;;;4907757;29;20040;-61
2021/05/26 12:38:17;;;;;;;9.20;1.38;;;;;;;;;;4907311;29;20040;-62
2021/05/26 12:40:43;;;;;;;10.15;1.00;;;;;;;;;;4903103;29;20421;-59
2021/05/26 12:43:23;;;;;;;4.72;1.55;;;;;;;;;;4906856;29;20031;-60
2021/05/26 12:45:49;;;;;;;4.22;1.25;;;;;;;;;;4907111;29;20407;-61
2021/05/26 12:48:17;;;;;;;3.92;1.20;;;;;;;;;;4889819;29;20134;-62
2021/05/26 12:50:44;;;;;;;3.35;1.88;;;;;;;;;;4906658;29;20044;-60
2021/05/26 12:53:10;;;;;;;2.95;1.42;;;;;;;;;;4906705;29;20039;-60
2021/05/26 12:55:37;;;;;;;4.78;1.35;;;;;;;;;;4906054;29;20150;-60
2021/05/26 12:58:04;;;;;;;3.47;1.38;;;;;;;;;;4906287;29;20094;-64
2021/05/26 13:00:35;;;;;;;2.38;1.15;;;;;;;;;;4905736;29;20042;-62
2021/05/26 13:03:20;;;;;;;6.95;1.70;;;;;;;;;;4921439;28;20116;-63
2021/05/26 13:05:48;;;;;;;4.40;1.60;;;;;;;;;;4897165;29;20690;-60
2021/05/26 13:08:15;;;;;;;2.60;1.10;;;;;;;;;;4917389;28;20040;-60
2021/05/26 13:11:00;;;;;;;1.67;1.20;;;;;;;;;;4903559;29;20032;-61
2021/05/26 13:13:29;;;;;;;4.63;1.48;;;;;;;;;;4905942;29;20035;-60
2021/05/26 13:15:58;;;;;;;3.47;1.05;;;;;;;;;;4904909;29;20040;-59
2021/05/26 13:18:25;;;;;;;6.05;1.27;;;;;;;;;;4904744;29;20035;-62
2021/05/26 13:20:54;;;;;;;3.28;1.10;;;;;;;;;;4903876;29;20989;-62
2021/05/26 13:23:24;;;;;;;3.75;0.90;;;;;;;;;;4889125;29;20047;-62
2021/05/26 13:25:52;;;;;;;3.85;1.10;;;;;;;;;;4891361;29;20036;-58
2021/05/26 13:28:19;;;;;;;5.80;1.38;;;;;;;;;;4905741;29;20040;-58
2021/05/26 13:30:49;;;;;;;5.80;1.50;;;;;;;;;;4905138;29;20179;-58
2021/05/26 13:33:16;;;;;;;8.63;1.10;;;;;;;;;;4921071;29;20063;-60
2021/05/26 13:35:46;;;;;;;14.63;1.58;;;;;;;;;;4906947;29;20054;-58
2021/05/26 13:38:13;;;;;;;5.68;1.20;;;;;;;;;;4906943;29;20106;-63
2021/05/26 13:40:43;;;;;;;6.13;1.23;;;;;;;;;;4905779;29;20083;-59
2021/05/26 13:43:09;;;;;;;5.32;1.63;;;;;;;;;;4888169;29;20118;-62
2021/05/26 13:45:36;;;;;;;3.10;1.25;;;;;;;;;;4905143;29;20034;-62
2021/05/26 13:48:05;;;;;;;13.50;1.77;;;;;;;;;;4904180;29;20028;-60
2021/05/26 13:50:33;;;;;;;3.28;1.63;;;;;;;;;;4903138;29;22013;-60
2021/05/26 13:53:02;;;;;;;4.47;1.50;;;;;;;;;;4886812;29;20521;-59
2021/05/26 13:55:36;;;;;;;4.95;1.25;;;;;;;;;;4905442;29;20056;-61
2021/05/26 13:58:02;;;;;;;5.45;1.13;;;;;;;;;;4903898;29;20040;-60
2021/05/26 14:00:30;;;;;;;6.82;1.50;;;;;;;;;;4891489;29;20059;-61
2021/05/26 14:02:56;;;;;;;3.72;1.13;;;;;;;;;;4901282;29;20038;-58
2021/05/26 14:05:30;;;;;;;7.57;1.95;;;;;;;;;;4908913;28;20059;-60
2021/05/26 14:07:56;;;;;;;6.38;2.05;;;;;;;;;;4906728;29;20931;-58
2021/05/26 14:10:25;;;;;;;2.40;1.45;;;;;;;;;;4907703;29;20217;-59
2021/05/26 14:12:57;;;;;;;3.47;1.70;;;;;;;;;;4908245;29;20039;-59
2021/05/26 14:15:24;;;;;;;15.13;2.60;;;;;;;;;;4907482;29;20118;-63
2021/05/26 14:17:54;;;;;;;2.53;1.83;;;;;;;;;;4908166;29;20054;-62
2021/05/26 14:20:23;;;;;;;5.03;2.00;;;;;;;;;;4905783;29;20994;-60
2021/05/26 14:22:51;;;;;;;6.93;2.25;;;;;;;;;;4920770;28;20039;-62
2021/05/26 14:25:20;;;;;;;6.55;2.25;;;;;;;;;;4910349;29;20019;-61
2021/05/26 14:27:46;;;;;;;6.95;2.25;;;;;;;;;;4897751;29;20043;-61
2021/05/26 14:30:13;;;;;;;6.45;2.42;;;;;;;;;;4922674;29;20044;-62
2021/05/26 14:32:39;;;;;;;6.35;2.75;;;;;;;;;;4907267;29;20086;-62
2021/05/26 14:35:07;;;;;;;7.85;2.83;;;;;;;;;;4920182;28;20615;-61
2021/05/26 14:37:40;;;;;;;9.18;2.78;;;;;;;;;;4921446;28;20063;-61
2021/05/26 14:40:10;;;;;;;6.35;2.70;;;;;;;;;;4922533;28;20040;-61
2021/05/26 14:42:37;;;;;;;6.55;3.10;;;;;;;;;;4906305;29;20051;-62
2021/05/26 14:45:03;;;;;;;7.05;2.65;;;;;;;;;;4907555;29;20111;-63
2021/05/26 14:47:29;;;;;;;9.45;3.20;;;;;;;;;;4921616;29;20142;-61